createdAt,value
2019-01-22T00:01:43.447Z,32.10
2019-01-22T00:04:19.235Z,31.80
2019-01-22T00:06:54.738Z,29.80
2019-01-22T00:09:28.998Z,29.83
2019-01-22T00:12:04.121Z,30.97
2019-01-22T00:14:39.709Z,30.43
2019-01-22T00:17:13.840Z,29.23
2019-01-22T00:19:47.635Z,30.27
2019-01-22T00:22:21.942Z,29.50
2019-01-22T00:24:57.658Z,30.60
2019-01-22T00:27:31.852Z,32.30
2019-01-22T00:30:07.679Z,31.57
2019-01-22T00:32:43.360Z,33.33
2019-01-22T00:35:18.877Z,32.17
2019-01-22T00:37:52.739Z,32.93
2019-01-22T00:40:26.395Z,34.77
2019-01-22T00:43:01.383Z,32.57
2019-01-22T00:45:36.055Z,34.53
2019-01-22T00:48:11.606Z,34.50
2019-01-22T00:50:45.993Z,32.77
2019-01-22T00:53:21.529Z,34.07
2019-01-22T00:55:58.996Z,33.30
2019-01-22T00:58:33.107Z,33.50
2019-01-22T01:01:08.651Z,34.00
2019-01-22T01:03:43.701Z,34.03
2019-01-22T01:06:18.006Z,33.53
2019-01-22T01:08:52.016Z,33.87
2019-01-22T01:11:25.794Z,34.07
2019-01-22T01:13:59.547Z,33.83
2019-01-22T01:16:33.466Z,33.73
2019-01-22T01:19:26.404Z,32.47
2019-01-22T01:22:00.496Z,32.93
2019-01-22T01:24:34.822Z,32.78
2019-01-22T01:27:08.960Z,32.50
2019-01-22T01:29:42.888Z,36.80
2019-01-22T01:32:16.949Z,38.43
2019-01-22T01:34:51.312Z,38.17
2019-01-22T01:37:25.316Z,40.57
2019-01-22T01:39:59.400Z,41.75
2019-01-22T01:42:33.343Z,40.83
2019-01-22T01:45:10.305Z,40.77
2019-01-22T01:47:44.575Z,41.17
2019-01-22T01:50:19.476Z,38.43
2019-01-22T01:52:53.419Z,37.37
2019-01-22T01:55:27.707Z,38.27
2019-01-22T01:58:01.951Z,36.60
2019-01-22T02:00:37.129Z,36.63
2019-01-22T02:03:13.808Z,35.40
2019-01-22T02:05:47.634Z,35.50
2019-01-22T02:08:22.933Z,36.10
2019-01-22T02:10:58.151Z,32.63
2019-01-22T02:13:53.320Z,33.60
2019-01-22T02:16:59.241Z,34.30
2019-01-22T02:19:42.094Z,33.37
2019-01-22T02:22:36.294Z,32.90
2019-01-22T02:25:15.010Z,34.43
2019-01-22T02:27:56.781Z,33.67
2019-01-22T02:30:45.079Z,36.37
2019-01-22T02:33:48.639Z,34.83
2019-01-22T02:36:39.539Z,32.97
2019-01-22T02:39:24.619Z,33.02
2019-01-22T02:42:04.519Z,30.87
2019-01-22T02:45:20.256Z,29.37
2019-01-22T02:48:05.630Z,29.75
2019-01-22T02:51:19.526Z,28.60
2019-01-22T02:53:59.055Z,28.57
2019-01-22T02:56:53.461Z,30.10
2019-01-22T02:59:50.368Z,30.20
2019-01-22T03:02:33.988Z,29.67
2019-01-22T03:05:30.834Z,29.00
2019-01-22T03:08:47.976Z,28.85
2019-01-22T03:11:33.110Z,30.43
2019-01-22T03:14:24.207Z,30.50
2019-01-22T03:17:05.965Z,32.30
2019-01-22T03:19:45.096Z,31.10
2019-01-22T03:22:36.258Z,30.03
2019-01-22T03:25:24.365Z,30.00
2019-01-22T03:28:03.456Z,28.27
2019-01-22T03:30:58.922Z,28.10
2019-01-22T03:33:44.405Z,27.80
2019-01-22T03:36:54.405Z,26.93
2019-01-22T03:43:08.451Z,25.95
2019-01-22T03:45:47.204Z,25.47
2019-01-22T03:49:18.259Z,25.40
2019-01-22T03:52:10.400Z,27.20
2019-01-22T03:55:11.737Z,25.20
2019-01-22T03:57:46.615Z,23.63
2019-01-22T04:00:24.723Z,24.50
2019-01-22T04:02:59.761Z,26.83
2019-01-22T04:05:35.423Z,25.53
2019-01-22T04:08:13.019Z,25.80
2019-01-22T04:10:47.780Z,26.30
2019-01-22T04:13:30.362Z,25.63
2019-01-22T04:16:07.611Z,25.60
2019-01-22T04:18:42.316Z,26.27
2019-01-22T04:21:18.654Z,25.20
2019-01-22T04:24:01.778Z,24.07
2019-01-22T04:26:53.226Z,24.50
2019-01-22T04:29:59.556Z,23.77
2019-01-22T04:33:07.734Z,23.55
2019-01-22T04:36:04.823Z,23.57
2019-01-22T04:38:41.447Z,21.83
2019-01-22T04:41:24.012Z,20.75
2019-01-22T04:44:24.574Z,23.60
2019-01-22T04:47:06.601Z,25.70
2019-01-22T04:50:23.495Z,25.87
2019-01-22T04:53:21.603Z,27.10
2019-01-22T04:56:26.629Z,26.23
2019-01-22T04:59:07.404Z,23.23
2019-01-22T05:01:59.273Z,19.27
2019-01-22T05:04:39.366Z,17.60
2019-01-22T05:07:51.555Z,15.08
2019-01-22T05:10:43.162Z,13.80
2019-01-22T05:13:25.793Z,14.90
2019-01-22T05:16:08.334Z,14.20
2019-01-22T05:19:03.671Z,12.70
2019-01-22T05:21:49.556Z,12.47
2019-01-22T05:24:58.214Z,12.83
2019-01-22T05:27:36.463Z,14.40
2019-01-22T05:30:37.584Z,13.60
2019-01-22T05:33:23.976Z,13.50
2019-01-22T05:36:09.316Z,14.50
2019-01-22T05:39:17.438Z,15.08
2019-01-22T05:42:15.727Z,15.10
2019-01-22T05:44:52.053Z,15.68
2019-01-22T05:47:51.414Z,16.90
2019-01-22T05:53:47.711Z,14.47
2019-01-22T05:56:26.886Z,14.20
2019-01-22T05:59:40.243Z,14.20
2019-01-22T06:02:16.064Z,16.03
2019-01-22T06:05:11.670Z,17.47
2019-01-22T06:08:06.493Z,19.23
2019-01-22T06:10:59.325Z,19.52
2019-01-22T06:13:51.159Z,16.50
2019-01-22T06:17:06.557Z,14.87
2019-01-22T06:20:01.948Z,14.23
2019-01-22T06:22:59.870Z,15.80
2019-01-22T06:26:08.727Z,16.57
2019-01-22T06:29:04.243Z,14.80
2019-01-22T06:31:43.101Z,12.47
2019-01-22T06:38:11.167Z,13.90
2019-01-22T06:41:25.009Z,14.83
2019-01-22T06:44:26.411Z,13.80
2019-01-22T06:47:16.577Z,14.10
2019-01-22T06:50:28.593Z,13.80
2019-01-22T06:53:20.894Z,11.83
2019-01-22T06:56:36.998Z,10.97
2019-01-22T06:59:21.779Z,9.30
2019-01-22T07:02:13.154Z,10.10
2019-01-22T07:04:58.471Z,9.75
2019-01-22T07:07:52.563Z,9.70
2019-01-22T07:10:34.429Z,9.43
2019-01-22T07:13:22.123Z,9.07
2019-01-22T07:16:31.756Z,9.10
2019-01-22T07:19:15.249Z,9.13
2019-01-22T07:21:56.688Z,9.30
2019-01-22T07:24:46.708Z,8.97
2019-01-22T07:27:42.822Z,8.10
2019-01-22T07:30:29.688Z,8.25
2019-01-22T07:33:30.294Z,8.37
2019-01-22T07:36:14.171Z,7.40
2019-01-22T07:38:59.525Z,7.95
2019-01-22T07:41:58.619Z,8.60
2019-01-22T07:44:35.703Z,9.00
2019-01-22T07:47:29.608Z,9.87
2019-01-22T07:50:22.191Z,9.43
2019-01-22T07:53:01.885Z,8.00
2019-01-22T07:55:53.356Z,7.93
2019-01-22T07:58:39.015Z,8.23
2019-01-22T08:01:19.273Z,9.17
2019-01-22T08:04:19.363Z,8.65
2019-01-22T08:07:23.584Z,8.97
2019-01-22T08:10:23.007Z,9.57
2019-01-22T08:12:59.453Z,9.45
2019-01-22T08:15:47.734Z,9.33
2019-01-22T08:18:56.968Z,9.50
2019-01-22T08:22:05.188Z,9.97
2019-01-22T08:24:50.308Z,10.27
2019-01-22T08:27:55.072Z,10.53
2019-01-22T08:30:46.100Z,11.15
2019-01-22T08:33:28.582Z,11.50
2019-01-22T08:36:10.781Z,12.43
2019-01-22T08:39:06.018Z,12.80
2019-01-22T08:42:00.995Z,11.90
2019-01-22T08:45:03.094Z,12.03
2019-01-22T08:48:28.480Z,11.90
2019-01-22T08:54:00.017Z,13.28
2019-01-22T08:56:58.020Z,13.73
2019-01-22T08:59:53.516Z,14.07
2019-01-22T09:03:01.646Z,15.80
2019-01-22T09:06:19.368Z,15.37
2019-01-22T09:09:15.385Z,16.57
2019-01-22T09:12:12.437Z,16.57
2019-01-22T09:14:54.783Z,15.78
2019-01-22T09:17:42.931Z,18.83
2019-01-22T09:20:39.094Z,20.70
2019-01-22T09:23:59.197Z,23.22
2019-01-22T09:26:52.949Z,23.07
2019-01-22T09:29:35.592Z,24.30
2019-01-22T09:32:35.127Z,25.87
2019-01-22T09:35:44.382Z,31.63
2019-01-22T09:38:21.735Z,35.68
2019-01-22T09:40:56.147Z,35.87
2019-01-22T09:43:34.338Z,42.03
2019-01-22T09:46:10.159Z,44.43
2019-01-22T09:48:45.244Z,43.27
2019-01-22T09:51:20.635Z,46.42
2019-01-22T09:53:54.787Z,46.10
2019-01-22T09:56:36.033Z,54.03
2019-01-22T10:01:50.318Z,61.30
2019-01-22T10:04:27.804Z,60.55
2019-01-22T10:07:05.932Z,61.13
2019-01-22T10:09:41.916Z,64.80
2019-01-22T10:12:28.793Z,69.07
2019-01-22T10:15:17.427Z,67.50
2019-01-22T10:17:49.673Z,75.80
2019-01-22T10:20:27.282Z,75.97
2019-01-22T10:23:04.490Z,78.37
2019-01-22T10:25:39.396Z,74.20
2019-01-22T10:28:16.163Z,74.60
2019-01-22T10:30:57.104Z,79.32
2019-01-22T10:33:33.696Z,78.12
2019-01-22T10:36:11.855Z,78.33
2019-01-22T10:38:48.879Z,80.37
2019-01-22T10:41:30.327Z,84.30
2019-01-22T10:44:14.331Z,88.43
2019-01-22T10:46:52.198Z,90.77
2019-01-22T10:49:28.258Z,89.47
2019-01-22T10:52:08.909Z,88.78
2019-01-22T10:54:51.500Z,98.03
2019-01-22T10:57:29.400Z,95.60
2019-01-22T11:00:08.167Z,99.27
2019-01-22T11:02:46.202Z,96.87
2019-01-22T11:05:26.245Z,101.53
2019-01-22T11:08:06.134Z,99.10
2019-01-22T11:10:43.802Z,103.53
2019-01-22T11:13:38.615Z,102.90
2019-01-22T11:16:15.858Z,99.27
2019-01-22T11:18:54.788Z,104.03
2019-01-22T11:21:31.417Z,100.97
2019-01-22T11:24:30.207Z,104.00
2019-01-22T11:27:00.733Z,105.03
2019-01-22T11:29:40.103Z,107.20
2019-01-22T11:32:18.277Z,107.30
2019-01-22T11:34:54.697Z,107.47
2019-01-22T11:37:30.386Z,105.70
2019-01-22T11:40:06.178Z,105.90
2019-01-22T11:42:42.954Z,103.50
2019-01-22T11:45:24.788Z,106.30
2019-01-22T11:47:59.348Z,105.33
2019-01-22T11:50:35.699Z,109.67
2019-01-22T11:53:11.041Z,111.83
2019-01-22T11:55:50.568Z,110.70
2019-01-22T11:58:24.606Z,111.72
2019-01-22T12:01:04.983Z,114.87
2019-01-22T12:03:40.388Z,114.30
2019-01-22T12:06:17.965Z,112.62
2019-01-22T12:09:13.665Z,112.17
2019-01-22T12:11:51.515Z,116.03
2019-01-22T12:14:26.981Z,115.53
2019-01-22T12:17:07.111Z,111.90
2019-01-22T12:19:53.242Z,116.03
2019-01-22T12:22:28.820Z,115.37
2019-01-22T12:25:04.724Z,113.47
2019-01-22T12:27:40.901Z,111.73
2019-01-22T12:30:32.951Z,111.40
2019-01-22T12:33:11.775Z,113.40
2019-01-22T12:35:49.927Z,107.83
2019-01-22T12:38:25.747Z,107.77
2019-01-22T12:41:01.748Z,106.13
2019-01-22T12:43:37.566Z,102.47
2019-01-22T12:46:12.973Z,97.90
2019-01-22T12:48:55.555Z,99.23
2019-01-22T12:51:31.935Z,97.15
2019-01-22T12:54:07.450Z,96.43
2019-01-22T12:56:53.288Z,94.60
2019-01-22T12:59:31.279Z,97.53
2019-01-22T13:02:06.639Z,95.00
2019-01-22T13:04:43.280Z,94.57
2019-01-22T13:07:19.273Z,90.87
2019-01-22T13:09:58.714Z,91.07
2019-01-22T13:12:38.840Z,86.63
2019-01-22T13:15:15.475Z,83.65
2019-01-22T13:17:52.271Z,82.60
2019-01-22T13:20:27.430Z,81.63
2019-01-22T13:23:03.392Z,83.10
2019-01-22T13:25:45.315Z,81.47
2019-01-22T13:28:21.562Z,80.93
2019-01-22T13:31:00.436Z,80.53
2019-01-22T13:33:37.157Z,81.63
2019-01-22T13:36:12.737Z,78.92
2019-01-22T13:38:50.993Z,80.03
2019-01-22T13:41:30.886Z,77.93
2019-01-22T13:44:10.679Z,73.72
2019-01-22T13:46:45.757Z,74.03
2019-01-22T13:49:21.451Z,74.77
2019-01-22T13:51:57.242Z,74.80
2019-01-22T13:54:37.289Z,75.40
2019-01-22T13:57:14.749Z,75.03
2019-01-22T13:59:50.435Z,75.67
2019-01-22T14:02:28.543Z,73.97
2019-01-22T14:05:08.593Z,72.00
2019-01-22T14:07:51.447Z,71.60
2019-01-22T14:10:33.210Z,69.17
2019-01-22T14:13:11.719Z,50.80
2019-01-22T14:15:50.743Z,55.07
2019-01-22T14:18:25.632Z,60.17
2019-01-22T14:21:16.026Z,57.00
2019-01-22T14:23:51.601Z,56.03
2019-01-22T14:26:31.550Z,56.27
2019-01-22T14:29:09.784Z,55.67
2019-01-22T14:31:48.181Z,55.43
2019-01-22T14:34:24.283Z,57.23
2019-01-22T14:37:00.518Z,52.58
2019-01-22T14:39:38.195Z,54.58
2019-01-22T14:42:13.247Z,54.58
2019-01-22T14:44:51.728Z,52.63
2019-01-22T14:47:26.695Z,48.37
2019-01-22T14:50:04.800Z,48.27
2019-01-22T14:52:40.500Z,47.80
2019-01-22T14:55:15.918Z,46.80
2019-01-22T14:57:57.209Z,47.23
2019-01-22T15:00:32.969Z,46.13
2019-01-22T15:03:13.562Z,44.53
2019-01-22T15:05:48.031Z,43.08
2019-01-22T15:08:22.728Z,45.27
2019-01-22T15:10:57.685Z,43.37
2019-01-22T15:13:34.419Z,41.50
2019-01-22T15:16:11.256Z,42.83
2019-01-22T15:18:45.644Z,44.30
2019-01-22T15:21:38.461Z,43.13
2019-01-22T15:24:14.720Z,44.97
2019-01-22T15:26:49.802Z,45.50
2019-01-22T15:29:24.509Z,45.63
2019-01-22T15:31:59.812Z,45.47
2019-01-22T15:34:37.688Z,46.00
2019-01-22T15:37:13.199Z,44.53
2019-01-22T15:39:56.210Z,45.67
2019-01-22T15:42:29.716Z,44.70
2019-01-22T15:45:12.047Z,43.60
2019-01-22T15:47:46.505Z,41.95
2019-01-22T15:50:22.747Z,40.13
2019-01-22T15:52:56.935Z,31.77
2019-01-22T15:55:33.032Z,32.55
2019-01-22T15:58:07.091Z,33.75
2019-01-22T16:00:41.740Z,33.43
2019-01-22T16:03:15.543Z,25.07
2019-01-22T16:05:49.276Z,23.83
2019-01-22T16:08:26.150Z,22.40
2019-01-22T16:11:00.650Z,20.83
2019-01-22T16:13:37.627Z,20.15
2019-01-22T16:16:14.347Z,17.73
2019-01-22T16:18:51.757Z,18.40
2019-01-22T16:21:27.934Z,17.43
2019-01-22T16:24:07.618Z,17.33
2019-01-22T16:26:53.383Z,17.93
2019-01-22T16:29:24.800Z,15.77
2019-01-22T16:32:00.028Z,16.65
2019-01-22T16:34:34.972Z,17.98
2019-01-22T16:37:08.902Z,16.77
2019-01-22T16:39:47.137Z,15.87
2019-01-22T16:42:22.720Z,14.50
2019-01-22T16:44:56.534Z,13.53
2019-01-22T16:47:34.968Z,12.40
2019-01-22T16:50:19.680Z,11.30
2019-01-22T16:53:01.767Z,11.63
2019-01-22T16:55:52.172Z,11.00
2019-01-22T16:58:33.543Z,9.97
2019-01-22T17:01:08.981Z,9.73
2019-01-22T17:03:44.098Z,9.30
2019-01-22T17:06:18.031Z,8.97
2019-01-22T17:08:52.562Z,8.77
2019-01-22T17:11:35.937Z,8.00
2019-01-22T17:14:28.540Z,8.73
2019-01-22T17:17:06.792Z,6.78
2019-01-22T17:19:41.580Z,7.57
2019-01-22T17:22:18.131Z,7.00
2019-01-22T17:25:05.109Z,6.77
2019-01-22T17:27:41.625Z,6.20
2019-01-22T17:30:17.826Z,6.10
2019-01-22T17:32:55.777Z,5.63
2019-01-22T17:35:39.803Z,6.53
2019-01-22T17:38:16.979Z,6.00
2019-01-22T17:40:50.756Z,5.77
2019-01-22T17:43:26.616Z,5.87
2019-01-22T17:46:03.797Z,5.70
2019-01-22T17:48:40.599Z,5.28
2019-01-22T17:51:16.897Z,6.00
2019-01-22T17:53:54.685Z,5.78
2019-01-22T17:56:33.455Z,6.23
2019-01-22T17:59:09.049Z,6.07
2019-01-22T18:01:50.576Z,5.27
2019-01-22T18:04:31.124Z,5.60
2019-01-22T18:07:05.981Z,5.72
2019-01-22T18:09:43.831Z,5.40
2019-01-22T18:12:21.224Z,5.87
2019-01-22T18:17:56.594Z,6.40
2019-01-22T18:20:40.033Z,5.67
2019-01-22T18:23:17.576Z,5.70
2019-01-22T18:25:54.493Z,6.30
2019-01-22T18:28:33.208Z,6.27
2019-01-22T18:31:07.816Z,5.90
2019-01-22T18:33:41.772Z,6.73
2019-01-22T18:36:20.522Z,6.87
2019-01-22T18:38:56.171Z,7.40
2019-01-22T18:41:30.991Z,6.73
2019-01-22T18:44:13.630Z,6.80
2019-01-22T18:46:48.045Z,7.27
2019-01-22T18:49:23.511Z,7.70
2019-01-22T18:51:57.954Z,8.20
2019-01-22T18:54:31.677Z,7.80
2019-01-22T18:57:13.471Z,7.50
2019-01-22T19:00:05.361Z,8.03
2019-01-22T19:02:43.522Z,7.60
2019-01-22T19:05:27.442Z,8.53
2019-01-22T19:08:05.880Z,7.62
2019-01-22T19:10:43.704Z,7.85
2019-01-22T19:13:26.421Z,7.47
2019-01-22T19:16:00.175Z,7.77
2019-01-22T19:18:33.939Z,6.90
2019-01-22T19:21:11.805Z,7.97
2019-01-22T19:23:46.397Z,7.47
2019-01-22T19:26:20.335Z,7.60
2019-01-22T19:28:54.919Z,7.30
2019-01-22T19:31:32.750Z,7.63
2019-01-22T19:34:07.808Z,7.40
2019-01-22T19:36:42.609Z,7.27
2019-01-22T19:39:18.023Z,6.37
2019-01-22T19:41:53.047Z,7.30
2019-01-22T19:44:27.681Z,6.35
2019-01-22T19:47:02.961Z,6.50
2019-01-22T19:49:38.658Z,7.20
2019-01-22T19:52:11.973Z,6.00
2019-01-22T19:54:46.354Z,6.17
2019-01-22T19:57:20.132Z,6.03
2019-01-22T19:59:54.766Z,6.57
2019-01-22T20:02:31.562Z,6.60
2019-01-22T20:05:06.234Z,6.30
2019-01-22T20:07:41.462Z,6.05
2019-01-22T20:10:17.210Z,5.97
2019-01-22T20:12:51.649Z,6.10
2019-01-22T20:15:27.580Z,5.60
2019-01-22T20:18:02.667Z,6.13
2019-01-22T20:20:36.723Z,5.80
2019-01-22T20:23:11.912Z,6.28
2019-01-22T20:25:48.504Z,5.33
2019-01-22T20:28:22.604Z,6.57
2019-01-22T20:30:56.356Z,7.23
2019-01-22T20:33:30.091Z,6.63
2019-01-22T20:36:03.408Z,6.57
2019-01-22T20:38:37.359Z,6.22
2019-01-22T20:41:11.282Z,6.53
2019-01-22T20:43:46.063Z,6.70
2019-01-22T20:46:19.677Z,6.67
2019-01-22T20:48:53.280Z,6.77
2019-01-22T20:51:27.298Z,6.83
2019-01-22T20:54:00.620Z,7.40
2019-01-22T20:56:34.183Z,7.03
2019-01-22T20:59:07.318Z,7.30
2019-01-22T21:01:41.281Z,7.40
2019-01-22T21:04:14.963Z,6.95
2019-01-22T21:06:50.891Z,6.87
2019-01-22T21:09:24.854Z,7.35
2019-01-22T21:11:58.554Z,6.63
2019-01-22T21:14:32.449Z,6.83
2019-01-22T21:17:06.024Z,7.23
2019-01-22T21:19:39.771Z,7.03
2019-01-22T21:22:13.313Z,6.57
2019-01-22T21:24:46.627Z,7.30
2019-01-22T21:27:20.169Z,6.87
2019-01-22T21:29:55.241Z,7.40
2019-01-22T21:32:28.649Z,7.27
2019-01-22T21:35:03.725Z,7.25
2019-01-22T21:37:37.434Z,7.85
2019-01-22T21:40:13.410Z,8.00
2019-01-22T21:42:47.065Z,8.23
2019-01-22T21:48:31.613Z,7.50
2019-01-22T21:51:05.542Z,8.93
2019-01-22T21:53:59.063Z,7.78
2019-01-22T21:56:33.903Z,7.93
2019-01-22T21:59:08.569Z,8.05
2019-01-22T22:01:43.052Z,7.72
2019-01-22T22:04:35.845Z,8.40
2019-01-22T22:07:09.456Z,7.83
2019-01-22T22:09:43.675Z,7.77
2019-01-22T22:12:18.468Z,7.70
2019-01-22T22:14:52.135Z,7.27
2019-01-22T22:17:25.695Z,8.03
2019-01-22T22:20:00.258Z,7.77
2019-01-22T22:22:33.760Z,7.33
2019-01-22T22:25:10.316Z,7.08
2019-01-22T22:27:44.048Z,7.83
2019-01-22T22:30:37.243Z,7.67
2019-01-22T22:33:12.878Z,7.57
2019-01-22T22:35:47.342Z,7.80
2019-01-22T22:38:24.174Z,8.50
2019-01-22T22:40:58.488Z,8.10
2019-01-22T22:43:32.737Z,8.97
2019-01-22T22:46:07.965Z,9.15
2019-01-22T22:48:43.414Z,8.20
2019-01-22T22:51:20.320Z,9.20
2019-01-22T22:53:54.404Z,9.40
2019-01-22T22:56:29.485Z,9.90
2019-01-22T22:59:04.086Z,9.47
2019-01-22T23:01:40.972Z,9.47
2019-01-22T23:04:14.664Z,9.80
2019-01-22T23:06:48.628Z,9.68
2019-01-22T23:09:22.856Z,9.73
2019-01-22T23:11:57.977Z,9.50
2019-01-22T23:14:32.442Z,10.10
2019-01-22T23:17:07.075Z,9.40
2019-01-22T23:19:41.110Z,9.90
2019-01-22T23:22:15.874Z,9.87
2019-01-22T23:24:49.944Z,9.70
2019-01-22T23:27:24.094Z,10.00
2019-01-22T23:29:59.914Z,9.70
2019-01-22T23:32:39.713Z,10.17
2019-01-22T23:35:13.873Z,9.97
2019-01-22T23:37:48.637Z,11.27
2019-01-22T23:40:23.690Z,10.43
2019-01-22T23:43:07.560Z,10.67
2019-01-22T23:45:42.566Z,11.23
2019-01-22T23:48:16.731Z,11.60
2019-01-22T23:50:54.417Z,11.83
2019-01-22T23:53:28.515Z,11.80
2019-01-22T23:56:02.770Z,10.17
2019-01-22T23:58:36.566Z,10.87
